Terminal Aerodrome Forecast
Issued by NWS Binghamton, NY

Home | Current Version | Previous Version | Text Only | Print | Product List | Glossary On
Versions: 1 2 3 4 5 6 7 8 9 10 11 12 13 14 15 16 17 18 19 20
221
FTUS41 KBGM 242340 AAC
TAFBGM
TAF AMD
KBGM 242340Z 2500/2524 21009KT P6SM SCT040 BKN080 WS020/25040KT
     FM250400 26006KT 3SM BR BKN025 WS020/26035KT
     FM250600 27006KT 3SM -SHRA BR OVC012
     FM251000 30004KT 2SM BR OVC008
     FM251500 36005KT P6SM OVC008=

USA.gov is the U.S. government's official web portal to all federal, state and local government web resources and services.